Time;durP1;ratioP1;P1;durP2;ratioP2;P2;SDS_P1;SDS_P2;PMS_P1;PMS_P2;Temp;Humidity;BMP_temperature;BMP_pressure;BME280_temperature;BME280_humidity;BME280_pressure;Samples;Min_cycle;Max_cycle;Signal;HPM_P1;HPM_P2
2023/08/30 00:01:56;;;;;;;6.75;3.40;;;;;;;-142.75;100.00;76121.50;5026389;28;20374;-61
2023/08/30 00:04:22;;;;;;;6.22;3.38;;;;;;;-142.75;100.00;76131.34;5025589;28;20029;-61
2023/08/30 00:06:48;;;;;;;5.95;3.13;;;;;;;-142.75;100.00;76125.44;5025563;28;20037;-61
2023/08/30 00:09:13;;;;;;;5.68;3.00;;;;;;;-142.75;100.00;76119.53;5025893;28;20038;-61
2023/08/30 00:11:38;;;;;;;7.72;3.60;;;;;;;-142.75;100.00;76113.63;5025827;28;20033;-60
2023/08/30 00:14:07;;;;;;;7.20;3.17;;;;;;;-142.75;100.00;76105.75;5025617;28;20033;-61
2023/08/30 00:16:33;;;;;;;5.38;2.97;;;;;;;-142.75;100.00;76109.69;5025409;28;20017;-60
2023/08/30 00:18:59;;;;;;;9.23;3.47;;;;;;;-142.75;100.00;76099.84;5025488;28;20400;-60
2023/08/30 00:21:25;;;;;;;6.25;3.50;;;;;;;-142.75;100.00;76097.88;5025521;28;20057;-60
2023/08/30 00:23:51;;;;;;;7.80;4.22;;;;;;;-142.75;100.00;76109.69;5025330;28;20113;-61
2023/08/30 00:26:16;;;;;;;6.35;3.90;;;;;;;-142.75;100.00;76117.56;5025250;28;20021;-61
2023/08/30 00:28:42;;;;;;;6.82;3.72;;;;;;;-142.75;100.00;76105.75;5025691;28;20045;-61
2023/08/30 00:31:07;;;;;;;6.55;3.67;;;;;;;-142.75;100.00;76121.50;5026023;28;20345;-61
2023/08/30 00:33:32;;;;;;;5.97;3.67;;;;;;;-142.75;100.00;76107.72;5025532;28;20475;-60
2023/08/30 00:35:59;;;;;;;9.38;4.15;;;;;;;-142.75;100.00;76121.50;5025081;28;20032;-60
2023/08/30 00:38:26;;;;;;;7.72;4.13;;;;;;;-142.75;100.00;76115.59;5025744;28;20098;-61
2023/08/30 00:40:52;;;;;;;8.57;4.15;;;;;;;-142.75;100.00;76121.50;5025199;28;20044;-60
2023/08/30 00:43:18;;;;;;;9.02;3.50;;;;;;;-142.75;100.00;76109.69;5025661;28;20041;-61
2023/08/30 00:45:44;;;;;;;7.57;4.03;;;;;;;-142.75;100.00;76129.38;5023955;28;20033;-61
2023/08/30 00:48:10;;;;;;;7.55;4.00;;;;;;;-142.75;100.00;76109.69;5024496;28;20036;-61
2023/08/30 00:50:36;;;;;;;9.05;4.25;;;;;;;-142.75;100.00;76135.28;5025188;28;20037;-60
2023/08/30 00:53:05;;;;;;;7.18;4.38;;;;;;;-142.75;100.00;76111.66;5028559;28;20433;-61
2023/08/30 00:55:34;;;;;;;8.15;3.85;;;;;;;-142.75;100.00;76117.56;5028797;28;20021;-60
2023/08/30 00:58:01;;;;;;;5.93;3.65;;;;;;;-142.75;100.00;76101.81;5029203;28;20025;-61
2023/08/30 01:00:27;;;;;;;6.63;3.90;;;;;;;-142.75;100.00;76097.88;5029665;28;20140;-60
2023/08/30 01:02:53;;;;;;;7.95;4.47;;;;;;;-142.75;100.00;76088.03;5029289;28;20037;-61
2023/08/30 01:05:19;;;;;;;7.82;4.43;;;;;;;-142.75;100.00;76080.16;5027261;28;20061;-61
2023/08/30 01:07:44;;;;;;;8.23;4.53;;;;;;;-142.75;100.00;76078.19;5029098;28;20068;-61
2023/08/30 01:10:10;;;;;;;7.75;3.92;;;;;;;-142.75;100.00;76074.25;5028712;28;20030;-61
2023/08/30 01:12:43;;;;;;;7.90;4.28;;;;;;;-142.75;100.00;76062.47;5029353;28;20022;-61
2023/08/30 01:15:13;;;;;;;8.95;5.00;;;;;;;-142.75;100.00;76054.59;5028581;28;20691;-61
2023/08/30 01:17:43;;;;;;;7.15;4.32;;;;;;;-142.75;100.00;76040.81;5028485;28;20021;-61
2023/08/30 01:20:15;;;;;;;10.82;4.88;;;;;;;-142.75;100.00;76048.69;5028464;28;20026;-62
2023/08/30 01:23:17;;;;;;;8.38;4.72;;;;;;;-142.75;100.00;76038.84;5034270;28;20028;-62
2023/08/30 01:26:06;;;;;;;8.85;4.75;;;;;;;-142.75;100.00;76044.75;5027765;28;20111;-62
2023/08/30 01:28:33;;;;;;;7.78;4.65;;;;;;;-142.75;100.00;76062.47;5027897;28;20544;-62
2023/08/30 01:31:00;;;;;;;8.98;5.22;;;;;;;-142.75;100.00;76058.53;5028945;28;20030;-63
2023/08/30 01:33:27;;;;;;;9.00;4.97;;;;;;;-142.75;100.00;76054.59;5028852;28;20033;-61
2023/08/30 01:35:59;;;;;;;7.57;4.80;;;;;;;-142.75;100.00;76046.72;5028102;28;20026;-61
2023/08/30 01:38:27;;;;;;;9.23;5.10;;;;;;;-142.75;100.00;76040.81;5028489;28;20037;-61
2023/08/30 01:40:54;;;;;;;11.07;5.10;;;;;;;-142.75;100.00;76034.91;5028312;28;20055;-61
2023/08/30 01:43:21;;;;;;;8.35;4.97;;;;;;;-142.75;100.00;76042.78;5027068;28;20117;-61
2023/08/30 01:45:46;;;;;;;11.27;4.97;;;;;;;-142.75;100.00;76060.50;5028034;28;20029;-62
2023/08/30 01:48:15;;;;;;;10.07;5.43;;;;;;;-142.75;100.00;76070.34;5028131;28;20025;-62
2023/08/30 01:50:42;;;;;;;9.27;5.78;;;;;;;-142.75;100.00;76099.84;5028264;28;20392;-61
2023/08/30 01:53:08;;;;;;;10.88;5.88;;;;;;;-142.75;100.00;76117.56;5028141;28;20127;-62
2023/08/30 01:55:34;;;;;;;9.77;5.07;;;;;;;-142.75;100.00;76109.69;5028026;28;20022;-62
2023/08/30 01:58:00;;;;;;;10.00;5.05;;;;;;;-142.75;100.00;76105.75;5027876;28;20052;-62
2023/08/30 02:00:25;;;;;;;13.20;6.15;;;;;;;-142.75;100.00;76101.81;5028477;28;20037;-61
2023/08/30 02:02:50;;;;;;;9.85;5.97;;;;;;;-142.75;100.00;76119.53;5027623;28;20037;-61
2023/08/30 02:05:16;;;;;;;9.80;6.00;;;;;;;-142.75;100.00;76115.59;5027093;28;20078;-61
2023/08/30 02:07:41;;;;;;;11.32;6.45;;;;;;;-142.75;100.00;76125.44;5027919;28;20055;-62
2023/08/30 02:10:11;;;;;;;11.05;6.05;;;;;;;-142.75;100.00;76105.75;5027659;28;20033;-61
2023/08/30 02:12:44;;;;;;;10.15;5.80;;;;;;;-142.75;100.00;76097.88;5027938;28;20029;-62
2023/08/30 02:15:11;;;;;;;11.88;6.57;;;;;;;-142.75;100.00;76093.94;5027344;28;20404;-62
2023/08/30 02:17:38;;;;;;;13.68;6.10;;;;;;;-142.75;100.00;76093.94;5027744;28;20026;-61
2023/08/30 02:20:05;;;;;;;12.55;6.20;;;;;;;-142.75;100.00;76097.88;5027579;28;20691;-61
2023/08/30 02:22:31;;;;;;;12.68;6.57;;;;;;;-142.75;100.00;76109.69;5027713;28;20033;-61
2023/08/30 02:24:57;;;;;;;11.27;6.05;;;;;;;-142.75;100.00;76105.75;5027609;28;20061;-62
2023/08/30 02:27:23;;;;;;;11.00;6.10;;;;;;;-142.75;100.00;76097.88;5027343;28;20109;-62
2023/08/30 02:29:48;;;;;;;11.50;5.95;;;;;;;-142.75;100.00;76105.75;5027556;28;20370;-61
2023/08/30 02:32:15;;;;;;;11.68;5.45;;;;;;;-142.75;100.00;76119.53;5028089;28;20083;-61
2023/08/30 02:34:40;;;;;;;10.90;6.28;;;;;;;-142.75;100.00;76109.69;5027209;28;20400;-61
2023/08/30 02:37:05;;;;;;;12.38;6.30;;;;;;;-142.75;100.00;76109.69;5027071;28;20037;-62
2023/08/30 02:39:31;;;;;;;13.13;6.32;;;;;;;-142.75;100.00;76121.50;5027232;28;20394;-61
2023/08/30 02:41:56;;;;;;;10.93;6.40;;;;;;;-142.75;100.00;76117.56;5027333;28;20030;-62
2023/08/30 02:44:21;;;;;;;12.75;6.40;;;;;;;-142.75;100.00;76113.63;5027207;28;20060;-62
2023/08/30 02:46:47;;;;;;;12.32;6.50;;;;;;;-142.75;100.00;76121.50;5026843;28;20037;-62
2023/08/30 02:49:12;;;;;;;11.68;6.10;;;;;;;-142.75;100.00;76125.44;5026826;28;20029;-61
2023/08/30 02:51:37;;;;;;;11.52;7.18;;;;;;;-142.75;100.00;76121.50;5027016;28;20025;-62
2023/08/30 02:54:03;;;;;;;10.68;6.25;;;;;;;-142.75;100.00;76125.44;5027047;28;20036;-61
2023/08/30 02:56:28;;;;;;;12.93;6.88;;;;;;;-142.75;100.00;76129.38;5026892;28;20053;-62
2023/08/30 02:58:53;;;;;;;11.57;6.65;;;;;;;-142.75;100.00;76123.47;5027117;28;20030;-62
2023/08/30 03:01:19;;;;;;;11.40;6.25;;;;;;;-142.75;100.00;76125.44;5035451;28;20033;-62
2023/08/30 03:03:46;;;;;;;9.65;5.45;;;;;;;-142.75;100.00;76129.38;5026838;28;20112;-61
2023/08/30 03:06:12;;;;;;;11.50;6.03;;;;;;;-142.75;100.00;76131.34;5026443;28;20134;-61
2023/08/30 03:08:37;;;;;;;12.55;6.53;;;;;;;-142.75;100.00;76121.50;5026881;28;20536;-61
2023/08/30 03:11:13;;;;;;;14.13;6.45;;;;;;;-142.75;100.00;76121.50;5026606;28;20102;-61
2023/08/30 03:13:38;;;;;;;13.85;6.85;;;;;;;-142.75;100.00;76127.41;5026433;28;20053;-61
2023/08/30 03:16:16;;;;;;;12.77;6.57;;;;;;;-142.75;100.00;76113.63;5026074;28;20052;-62
2023/08/30 03:18:43;;;;;;;16.58;7.38;;;;;;;-142.75;100.00;76133.31;5028756;28;20037;-62
2023/08/30 03:21:10;;;;;;;13.93;7.05;;;;;;;-142.75;100.00;76113.63;5026425;28;20018;-62
2023/08/30 03:23:36;;;;;;;11.10;5.90;;;;;;;-142.75;100.00;76109.69;5026287;28;20026;-62
2023/08/30 03:26:27;;;;;;;12.25;5.93;;;;;;;-142.75;100.00;76115.59;5025927;28;20570;-62
2023/08/30 03:28:52;;;;;;;11.25;6.85;;;;;;;-142.75;100.00;76129.38;5024539;28;20045;-62
2023/08/30 03:31:19;;;;;;;11.77;6.43;;;;;;;-142.75;100.00;76111.66;5026774;28;20048;-62
2023/08/30 03:33:46;;;;;;;15.73;7.75;;;;;;;-142.75;100.00;76109.69;5026275;28;20096;-62
2023/08/30 03:36:14;;;;;;;11.95;6.88;;;;;;;-142.75;100.00;76099.84;5025914;28;20029;-62
2023/08/30 03:38:40;;;;;;;13.10;7.15;;;;;;;-142.75;100.00;76109.69;5026102;28;20025;-62
2023/08/30 03:41:05;;;;;;;14.23;7.68;;;;;;;-142.75;100.00;76103.78;5026282;28;20113;-62
2023/08/30 03:43:31;;;;;;;12.48;6.95;;;;;;;-142.75;100.00;76101.81;5026337;28;20037;-62
2023/08/30 03:45:59;;;;;;;12.82;7.30;;;;;;;-142.75;100.00;76099.84;5025747;28;20032;-62
2023/08/30 03:48:24;;;;;;;12.93;7.22;;;;;;;-142.75;100.00;76082.13;5026192;28;20029;-62
2023/08/30 03:50:50;;;;;;;19.40;8.60;;;;;;;-142.75;100.00;76101.81;5025776;28;20104;-62
2023/08/30 03:53:15;;;;;;;12.82;7.18;;;;;;;-142.75;100.00;76097.88;5025989;28;20052;-62
2023/08/30 03:55:41;;;;;;;16.58;7.25;;;;;;;-142.75;100.00;76088.03;5025563;28;20091;-62
2023/08/30 03:58:07;;;;;;;11.98;7.13;;;;;;;-142.75;100.00;76095.91;5025692;28;20567;-62
2023/08/30 04:00:36;;;;;;;15.30;8.07;;;;;;;-142.75;100.00;76074.25;5026001;28;20101;-62
2023/08/30 04:03:01;;;;;;;13.93;7.43;;;;;;;-142.75;100.00;76093.94;5026177;28;20052;-62
2023/08/30 04:05:26;;;;;;;14.30;7.63;;;;;;;-142.75;100.00;76095.91;5025483;28;20800;-62
2023/08/30 04:07:52;;;;;;;11.75;6.35;;;;;;;-142.75;100.00;76082.13;5030034;28;20028;-62
2023/08/30 04:10:17;;;;;;;15.82;7.65;;;;;;;-142.75;100.00;76091.97;5027177;28;20039;-62
2023/08/30 04:12:42;;;;;;;12.63;6.55;;;;;;;-142.75;100.00;76090.00;5025620;28;20017;-63
2023/08/30 04:15:09;;;;;;;13.43;7.43;;;;;;;-142.75;100.00;76095.91;5025432;28;20017;-62
2023/08/30 04:17:34;;;;;;;13.32;7.30;;;;;;;-142.75;100.00;76097.88;5026061;28;20032;-62
2023/08/30 04:20:00;;;;;;;13.77;7.63;;;;;;;-142.75;100.00;76097.88;5025874;28;20029;-62
2023/08/30 04:22:25;;;;;;;14.85;7.80;;;;;;;-142.75;100.00;76091.97;5025879;28;20494;-62
2023/08/30 04:24:51;;;;;;;12.88;7.18;;;;;;;-142.75;100.00;76093.94;5022607;28;20374;-62
2023/08/30 04:27:16;;;;;;;12.63;7.00;;;;;;;-142.75;100.00;76082.13;5027268;28;20059;-62
2023/08/30 04:29:44;;;;;;;13.80;6.43;;;;;;;-142.75;100.00;76072.31;5029865;28;20488;-62
2023/08/30 04:32:10;;;;;;;12.75;7.15;;;;;;;-142.75;100.00;76062.47;5029908;28;20100;-61
2023/08/30 04:34:35;;;;;;;18.33;7.55;;;;;;;-142.75;100.00;76064.44;5029462;28;20036;-61
2023/08/30 04:37:00;;;;;;;13.27;7.35;;;;;;;-142.75;100.00;76062.47;5029539;28;20025;-62
2023/08/30 04:39:26;;;;;;;14.77;7.35;;;;;;;-142.75;100.00;76060.50;5029605;28;20034;-62
2023/08/30 04:41:52;;;;;;;16.00;7.47;;;;;;;-142.75;100.00;76062.47;5029231;28;20040;-62
2023/08/30 04:44:19;;;;;;;14.50;7.65;;;;;;;-142.75;100.00;76058.53;5029111;28;20160;-62
2023/08/30 04:46:44;;;;;;;12.35;6.80;;;;;;;-142.75;100.00;76042.78;5029060;28;20112;-62
2023/08/30 04:49:09;;;;;;;12.55;7.25;;;;;;;-142.75;100.00;76023.09;5029427;28;20497;-62
2023/08/30 04:51:35;;;;;;;14.75;7.55;;;;;;;-142.75;100.00;76048.69;5029546;28;20037;-62
2023/08/30 04:54:00;;;;;;;13.57;7.53;;;;;;;-142.75;100.00;76038.84;5029333;28;20025;-61
2023/08/30 04:56:25;;;;;;;12.43;7.25;;;;;;;-142.75;100.00;76034.91;5029082;28;20033;-62
2023/08/30 04:58:51;;;;;;;12.95;7.50;;;;;;;-142.75;100.00;76038.84;5029324;28;20029;-62
2023/08/30 05:01:16;;;;;;;13.18;7.70;;;;;;;-142.75;100.00;76042.78;5029481;28;20138;-62
2023/08/30 05:03:42;;;;;;;14.77;7.53;;;;;;;-142.75;100.00;76038.84;5029213;28;20021;-62
2023/08/30 05:06:07;;;;;;;12.55;7.78;;;;;;;-142.75;100.00;76036.88;5028505;28;20516;-62
2023/08/30 05:08:33;;;;;;;17.00;7.97;;;;;;;-142.75;100.00;76027.03;5029145;28;20049;-64
2023/08/30 05:10:58;;;;;;;14.73;8.68;;;;;;;-142.75;100.00;76023.09;5028837;28;20040;-64
2023/08/30 05:13:24;;;;;;;13.85;8.20;;;;;;;-142.75;100.00;76015.22;5028827;28;20036;-64
2023/08/30 05:15:49;;;;;;;16.17;8.43;;;;;;;-142.75;100.00;75991.59;5028708;28;20052;-62
2023/08/30 05:18:15;;;;;;;16.63;8.30;;;;;;;-142.75;100.00;75989.63;5026591;28;20047;-65
2023/08/30 05:20:40;;;;;;;16.38;9.30;;;;;;;-142.75;100.00;76003.41;5027943;28;20047;-62
2023/08/30 05:23:05;;;;;;;16.08;8.90;;;;;;;-142.75;100.00;76007.34;5028517;28;20029;-62
2023/08/30 05:25:30;;;;;;;13.13;8.45;;;;;;;-142.75;100.00;75991.59;5028189;28;20029;-63
2023/08/30 05:27:56;;;;;;;14.00;8.35;;;;;;;-142.75;100.00;75999.47;5029023;28;20033;-64
2023/08/30 05:30:21;;;;;;;13.95;8.45;;;;;;;-142.75;100.00;76007.34;5028525;28;20104;-64
2023/08/30 05:32:47;;;;;;;15.25;8.07;;;;;;;-142.75;100.00;75987.66;5029306;28;20121;-62
2023/08/30 05:35:12;;;;;;;14.13;8.77;;;;;;;-142.75;100.00;75983.72;5028189;28;20479;-63
2023/08/30 05:37:37;;;;;;;12.43;7.85;;;;;;;-142.75;100.00;75983.72;5028466;28;20030;-62
2023/08/30 05:40:03;;;;;;;13.98;8.40;;;;;;;-142.75;100.00;75954.22;5028419;28;20148;-63
2023/08/30 05:42:29;;;;;;;15.07;8.57;;;;;;;-142.75;100.00;75954.22;5028156;28;20021;-63
2023/08/30 05:44:54;;;;;;;14.13;8.93;;;;;;;-142.75;100.00;75954.22;5028052;28;20156;-64
2023/08/30 05:47:21;;;;;;;17.02;9.65;;;;;;;-142.75;100.00;75928.63;5028166;28;20420;-64
2023/08/30 05:49:47;;;;;;;17.92;9.15;;;;;;;-142.75;100.00;75903.03;5028078;28;20029;-63
2023/08/30 05:52:12;;;;;;;15.13;8.80;;;;;;;-142.75;100.00;75885.31;5028141;28;20481;-63
2023/08/30 05:54:37;;;;;;;12.88;8.68;;;;;;;-142.75;100.00;75873.50;5027851;28;20029;-63
2023/08/30 05:57:03;;;;;;;19.40;10.15;;;;;;;-142.75;100.00;75869.56;5025723;28;20108;-63
2023/08/30 05:59:29;;;;;;;18.38;10.32;;;;;;;-142.75;100.00;75845.97;5028164;28;20033;-63
2023/08/30 06:01:54;;;;;;;16.58;10.02;;;;;;;-142.75;100.00;75842.03;5028685;28;20108;-63
2023/08/30 06:04:20;;;;;;;15.50;9.32;;;;;;;-142.75;100.00;75826.28;5027959;28;20075;-64
2023/08/30 06:06:45;;;;;;;14.95;8.90;;;;;;;-142.75;100.00;75828.25;5027593;28;20072;-64
2023/08/30 06:09:14;;;;;;;13.85;8.45;;;;;;;-142.75;100.00;75810.53;5027754;28;20041;-64
2023/08/30 06:11:40;;;;;;;16.08;8.73;;;;;;;-142.75;100.00;75802.66;5027568;28;20036;-63
2023/08/30 06:14:05;;;;;;;17.88;8.93;;;;;;;-142.75;100.00;75804.63;5027862;28;20029;-63
2023/08/30 06:16:31;;;;;;;17.13;9.20;;;;;;;-142.75;100.00;75790.84;5027570;28;20035;-63
2023/08/30 06:18:58;;;;;;;16.15;9.18;;;;;;;-142.75;100.00;75781.00;5027948;28;20113;-63
2023/08/30 06:21:24;;;;;;;16.42;9.68;;;;;;;-142.75;100.00;75769.19;5027459;28;20102;-61
2023/08/30 06:23:50;;;;;;;15.20;9.05;;;;;;;-142.75;100.00;75777.06;5027349;28;20104;-63
2023/08/30 06:26:15;;;;;;;15.77;9.40;;;;;;;-142.75;100.00;75777.06;5027269;28;20057;-64
2023/08/30 06:28:41;;;;;;;15.75;10.10;;;;;;;-142.75;100.00;75771.16;5027398;28;20033;-63
2023/08/30 06:31:06;;;;;;;17.30;10.77;;;;;;;-142.75;100.00;75755.44;5027859;28;20025;-63
2023/08/30 06:33:31;;;;;;;13.57;9.23;;;;;;;-142.75;100.00;75747.56;5027350;28;20071;-63
2023/08/30 06:35:57;;;;;;;14.60;9.48;;;;;;;-142.75;100.00;75731.81;5027448;28;20083;-63
2023/08/30 06:38:22;;;;;;;18.20;11.10;;;;;;;-142.75;100.00;75737.72;5027155;28;20040;-63
2023/08/30 06:40:47;;;;;;;18.05;11.00;;;;;;;-142.75;100.00;75739.69;5027220;28;20041;-63
2023/08/30 06:43:13;;;;;;;19.70;10.38;;;;;;;-142.75;100.00;75747.56;5027234;28;20041;-63
2023/08/30 06:45:44;;;;;;;20.48;10.73;;;;;;;-142.75;100.00;75727.88;5026614;28;20049;-64
2023/08/30 06:48:10;;;;;;;18.92;11.32;;;;;;;-142.75;100.00;75731.81;5026744;28;20061;-63
2023/08/30 06:50:35;;;;;;;16.60;10.07;;;;;;;-142.75;100.00;75735.75;5026546;28;20688;-64
2023/08/30 06:53:03;;;;;;;16.33;10.52;;;;;;;-142.75;100.00;75716.06;5026919;28;20514;-63
2023/08/30 06:55:28;;;;;;;17.73;10.40;;;;;;;-142.75;100.00;75721.97;5027254;28;20091;-63
2023/08/30 06:57:55;;;;;;;14.93;9.32;;;;;;;-142.75;100.00;75716.06;5026661;28;20489;-63
2023/08/30 07:00:20;;;;;;;15.50;8.65;;;;;;;-142.75;100.00;75714.09;5026636;28;20108;-63
2023/08/30 07:02:46;;;;;;;13.27;8.45;;;;;;;-142.75;100.00;75708.19;5027486;28;20109;-63
2023/08/30 07:05:14;;;;;;;14.82;9.00;;;;;;;-142.75;100.00;75686.53;5026185;28;20112;-63
2023/08/30 07:07:40;;;;;;;12.90;8.38;;;;;;;-142.75;100.00;75692.44;5026576;28;20087;-64
2023/08/30 07:10:06;;;;;;;10.55;7.22;;;;;;;-142.75;100.00;75696.38;5020998;28;20033;-63
2023/08/30 07:12:31;;;;;;;11.75;7.28;;;;;;;-142.75;100.00;75680.63;5023826;28;20017;-63
2023/08/30 07:14:57;;;;;;;10.20;6.55;;;;;;;-142.75;100.00;75678.66;5027547;28;20029;-63
2023/08/30 07:17:22;;;;;;;11.27;7.07;;;;;;;-142.75;100.00;75678.66;5026040;28;20030;-63
2023/08/30 07:19:48;;;;;;;10.98;5.85;;;;;;;-142.75;100.00;75668.84;5026381;28;20037;-64
2023/08/30 07:22:16;;;;;;;10.57;6.13;;;;;;;-142.75;100.00;75664.91;5026217;28;20028;-63
2023/08/30 07:24:42;;;;;;;10.88;5.57;;;;;;;-142.75;100.00;75660.97;5026423;28;20026;-63
2023/08/30 07:27:08;;;;;;;11.68;5.72;;;;;;;-142.75;100.00;75659.00;5026252;28;20025;-63
2023/08/30 07:29:33;;;;;;;10.30;5.80;;;;;;;-142.75;100.00;75641.28;5026259;28;20017;-63
2023/08/30 07:31:59;;;;;;;9.38;6.00;;;;;;;-142.75;100.00;75633.41;5027265;28;20017;-64
2023/08/30 07:34:24;;;;;;;8.48;5.45;;;;;;;-142.75;100.00;75637.34;5026193;28;20179;-64
2023/08/30 07:36:49;;;;;;;8.82;5.28;;;;;;;-142.75;100.00;75641.28;5025176;28;20071;-64
2023/08/30 07:39:15;;;;;;;7.07;5.03;;;;;;;-142.75;100.00;75617.66;5025199;28;20029;-65
2023/08/30 07:41:40;;;;;;;8.75;5.22;;;;;;;-142.75;100.00;75609.78;5024188;28;20101;-63
2023/08/30 07:44:05;;;;;;;8.65;5.40;;;;;;;-142.75;100.00;75613.72;5025110;28;20028;-62
2023/08/30 07:46:31;;;;;;;8.85;5.28;;;;;;;-142.75;100.00;75601.91;5025227;28;20025;-63
2023/08/30 07:48:56;;;;;;;10.63;5.72;;;;;;;-142.75;100.00;75590.13;5025043;28;20424;-63
2023/08/30 07:51:21;;;;;;;10.52;6.15;;;;;;;-142.75;100.00;75586.19;5022673;28;20032;-63
2023/08/30 07:53:47;;;;;;;9.95;6.07;;;;;;;-142.75;100.00;75584.22;5022206;28;20525;-63
2023/08/30 07:56:12;;;;;;;10.45;6.28;;;;;;;-142.75;100.00;75584.22;5024545;28;20025;-63
2023/08/30 07:58:37;;;;;;;8.50;5.50;;;;;;;-142.75;100.00;75590.13;5022279;28;20108;-63
2023/08/30 08:01:03;;;;;;;8.60;6.18;;;;;;;-142.75;100.00;75586.19;5023367;28;20548;-64
2023/08/30 08:03:28;;;;;;;11.70;6.75;;;;;;;-142.75;100.00;75564.53;5020530;28;20113;-63
2023/08/30 08:05:54;;;;;;;10.77;6.82;;;;;;;-142.75;100.00;75554.69;5020980;28;20026;-63
2023/08/30 08:08:19;;;;;;;12.50;7.60;;;;;;;-142.75;100.00;75558.63;5021221;28;20045;-64
2023/08/30 08:10:45;;;;;;;10.68;7.63;;;;;;;-142.75;100.00;75556.66;5025898;28;20091;-63
2023/08/30 08:13:10;;;;;;;10.45;7.47;;;;;;;-142.75;100.00;75538.94;5025338;28;20070;-63
2023/08/30 08:15:35;;;;;;;13.52;7.45;;;;;;;-142.75;100.00;75529.09;5024668;28;20093;-63
2023/08/30 08:18:02;;;;;;;10.82;7.47;;;;;;;-142.75;100.00;75507.47;5023648;28;20105;-64
2023/08/30 08:20:29;;;;;;;10.82;7.55;;;;;;;-142.75;100.00;75495.66;5023106;28;21611;-63
2023/08/30 08:22:55;;;;;;;10.93;7.22;;;;;;;-142.75;100.00;75495.66;5022714;28;20032;-64
2023/08/30 08:25:22;;;;;;;11.38;7.50;;;;;;;-142.75;100.00;75470.06;5023999;28;20602;-63
2023/08/30 08:27:47;;;;;;;9.63;6.68;;;;;;;-142.75;100.00;75444.47;5024022;28;20112;-63
2023/08/30 08:30:13;;;;;;;10.88;7.65;;;;;;;-142.75;100.00;75428.75;5021683;28;20103;-62
2023/08/30 08:32:38;;;;;;;13.55;7.93;;;;;;;-142.75;100.00;75426.78;5020104;28;20025;-64
2023/08/30 08:35:04;;;;;;;11.32;7.22;;;;;;;-142.75;100.00;75395.28;5020977;28;20539;-64
2023/08/30 08:37:30;;;;;;;12.82;8.20;;;;;;;-142.75;100.00;75342.16;5025792;28;20033;-65
2023/08/30 08:39:56;;;;;;;13.95;8.43;;;;;;;-142.75;100.00;75306.72;5026020;28;20431;-63
2023/08/30 08:42:21;;;;;;;14.63;8.38;;;;;;;-142.75;100.00;75287.06;5021205;28;20025;-64
2023/08/30 08:44:49;;;;;;;11.63;8.23;;;;;;;-142.75;100.00;75257.53;5024030;28;20063;-64
2023/08/30 08:47:17;;;;;;;11.75;8.27;;;;;;;-142.75;100.00;75212.28;5025000;28;20105;-64
2023/08/30 08:49:43;;;;;;;13.77;8.55;;;;;;;-142.75;100.00;75165.03;5020560;28;20026;-66
2023/08/30 08:52:09;;;;;;;11.00;8.13;;;;;;;-142.75;100.00;75129.63;5020882;28;20026;-65
2023/08/30 08:54:40;;;;;;;11.70;8.13;;;;;;;-142.75;100.00;75117.81;5019689;28;20528;-65
2023/08/30 08:57:07;;;;;;;10.90;7.40;;;;;;;-142.75;100.00;75125.69;5019972;28;20531;-65
2023/08/30 08:59:32;;;;;;;9.80;7.50;;;;;;;-142.75;100.00;75121.75;5024163;28;20017;-66
2023/08/30 09:01:59;;;;;;;9.23;7.18;;;;;;;-142.75;100.00;75123.72;5025167;28;20029;-65
2023/08/30 09:04:26;;;;;;;8.80;6.18;;;;;;;-142.75;100.00;75094.22;5025403;28;20034;-64
2023/08/30 09:06:51;;;;;;;8.25;6.55;;;;;;;-142.75;100.00;75084.38;5024949;28;20033;-64
2023/08/30 09:09:17;;;;;;;6.35;3.70;;;;;;;-142.75;100.00;75117.81;5025828;28;20025;-64
2023/08/30 09:11:42;;;;;;;4.78;3.45;;;;;;;-142.75;100.00;75165.03;5024421;28;20037;-64
2023/08/30 09:14:09;;;;;;;4.80;2.95;;;;;;;-142.75;100.00;75133.56;5028618;28;20025;-64
2023/08/30 09:16:34;;;;;;;6.20;2.75;;;;;;;-142.75;100.00;75129.63;5028254;28;20079;-63
2023/08/30 09:19:02;;;;;;;7.03;2.63;;;;;;;-142.75;100.00;75153.25;5029348;28;20053;-64
2023/08/30 09:21:28;;;;;;;3.45;1.85;;;;;;;-142.75;100.00;75174.88;5027859;28;20072;-64
2023/08/30 09:24:01;;;;;;;6.60;2.20;;;;;;;-142.75;100.00;75196.53;5027938;28;20037;-64
2023/08/30 09:26:31;;;;;;;4.50;1.80;;;;;;;-142.75;100.00;75251.63;5025526;28;20025;-64
2023/08/30 09:29:05;;;;;;;5.22;2.00;;;;;;;-142.75;100.00;75320.50;5027359;28;20481;-64
2023/08/30 09:31:34;;;;;;;4.90;1.95;;;;;;;-142.75;100.00;75346.09;5029562;28;20523;-63
2023/08/30 09:34:01;;;;;;;6.35;1.77;;;;;;;-142.75;100.00;75314.59;5030549;28;20535;-65
2023/08/30 09:36:33;;;;;;;4.32;1.58;;;;;;;-142.75;100.00;75350.03;5029152;28;20025;-65
2023/08/30 09:38:58;;;;;;;5.55;1.88;;;;;;;-142.75;100.00;75371.66;5028417;28;20029;-65
2023/08/30 09:41:24;;;;;;;6.53;1.90;;;;;;;-142.75;100.00;75377.56;5028156;28;20035;-64
2023/08/30 09:43:50;;;;;;;6.82;1.92;;;;;;;-142.75;100.00;75381.50;5028469;28;20036;-63
2023/08/30 09:46:15;;;;;;;5.53;2.33;;;;;;;-142.75;100.00;75393.31;5028601;28;20631;-65
2023/08/30 09:48:41;;;;;;;6.57;2.40;;;;;;;-142.75;100.00;75409.06;5028307;28;20052;-63
2023/08/30 09:51:08;;;;;;;5.43;1.80;;;;;;;-142.75;100.00;75416.94;5029009;28;20017;-63
2023/08/30 09:53:42;;;;;;;7.40;2.20;;;;;;;-142.75;100.00;75409.06;5028605;28;20022;-63
2023/08/30 09:56:11;;;;;;;6.68;2.30;;;;;;;-142.75;100.00;75413.00;5028634;28;20505;-64
2023/08/30 09:58:37;;;;;;;5.75;2.10;;;;;;;-142.75;100.00;75418.91;5031901;28;20029;-63
2023/08/30 10:01:03;;;;;;;5.97;2.30;;;;;;;-142.75;100.00;75426.78;5027939;28;20558;-63
2023/08/30 10:03:30;;;;;;;7.38;1.67;;;;;;;-142.75;100.00;75399.22;5028799;28;20048;-63
2023/08/30 10:05:58;;;;;;;10.52;2.10;;;;;;;-142.75;100.00;75424.81;5027531;28;20554;-63
2023/08/30 10:08:29;;;;;;;6.35;2.00;;;;;;;-142.75;100.00;75430.72;5028644;28;20064;-63
2023/08/30 10:10:54;;;;;;;7.93;1.55;;;;;;;-142.75;100.00;75450.38;5027661;28;20065;-63
2023/08/30 10:13:21;;;;;;;4.43;1.75;;;;;;;-142.75;100.00;75483.84;5025946;28;20057;-64
2023/08/30 10:15:51;;;;;;;8.52;1.70;;;;;;;-142.75;100.00;75485.81;5023542;28;20496;-64
2023/08/30 10:18:20;;;;;;;4.82;1.58;;;;;;;-142.75;100.00;75491.72;5027893;28;20022;-64
2023/08/30 10:20:46;;;;;;;9.02;2.30;;;;;;;-142.75;100.00;75505.50;5027906;28;20033;-63
2023/08/30 10:23:13;;;;;;;9.80;2.47;;;;;;;-142.75;100.00;75521.22;5026086;28;20021;-63
2023/08/30 10:25:41;;;;;;;6.68;2.33;;;;;;;-142.75;100.00;75517.28;5025940;28;20029;-63
2023/08/30 10:28:07;;;;;;;10.98;3.28;;;;;;;-142.75;100.00;75535.00;5028595;28;20029;-63
2023/08/30 10:30:33;;;;;;;6.43;1.58;;;;;;;-142.75;100.00;75519.25;5027603;28;20021;-64
2023/08/30 10:32:59;;;;;;;6.85;2.00;;;;;;;-142.75;100.00;75503.53;5028928;28;20397;-63
2023/08/30 10:35:25;;;;;;;8.02;2.10;;;;;;;-142.75;100.00;75487.78;5027592;28;20028;-62
2023/08/30 10:37:59;;;;;;;7.15;2.20;;;;;;;-142.75;100.00;75456.28;5027763;28;20312;-63
2023/08/30 10:40:24;;;;;;;8.05;1.95;;;;;;;-142.75;100.00;75432.69;5027704;28;20063;-63
2023/08/30 10:43:03;;;;;;;11.30;2.50;;;;;;;-142.75;100.00;75401.19;5026268;28;20684;-63
2023/08/30 10:45:30;;;;;;;8.98;2.70;;;;;;;-142.75;100.00;75389.38;5025907;28;20112;-63
2023/08/30 10:47:57;;;;;;;8.95;2.60;;;;;;;-142.75;100.00;75369.69;5027371;28;20029;-63
2023/08/30 10:50:33;;;;;;;8.05;2.30;;;;;;;-142.75;100.00;75324.44;5026897;28;20036;-62
2023/08/30 10:52:59;;;;;;;10.00;2.60;;;;;;;-142.75;100.00;75334.28;5027252;28;20033;-62
2023/08/30 10:55:25;;;;;;;9.98;2.63;;;;;;;-142.75;100.00;75332.31;5027413;28;20491;-62
2023/08/30 10:58:02;;;;;;;9.82;2.30;;;;;;;-142.75;100.00;75310.66;5027451;28;20708;-63
2023/08/30 11:00:29;;;;;;;5.00;1.70;;;;;;;-142.75;100.00;75306.72;5027232;28;20116;-62
2023/08/30 11:02:55;;;;;;;10.02;2.17;;;;;;;-142.75;100.00;75310.66;5026698;28;20112;-62